sensor_id;sensor_type;location;lat;lon;timestamp;temperature;humidity
61841;DHT22;47773;53.174;6.614;2022-09-03T00:01:50;17.30;71.00
61841;DHT22;47773;53.174;6.614;2022-09-03T00:04:24;17.30;71.40
61841;DHT22;47773;53.174;6.614;2022-09-03T00:07:07;17.30;71.60
61841;DHT22;47773;53.174;6.614;2022-09-03T00:09:50;17.30;71.90
61841;DHT22;47773;53.174;6.614;2022-09-03T00:12:29;17.20;72.00
61841;DHT22;47773;53.174;6.614;2022-09-03T00:15:03;17.10;72.20
61841;DHT22;47773;53.174;6.614;2022-09-03T00:17:33;17.20;72.40
61841;DHT22;47773;53.174;6.614;2022-09-03T00:20:05;17.10;72.30
61841;DHT22;47773;53.174;6.614;2022-09-03T00:22:45;17.10;72.50
61841;DHT22;47773;53.174;6.614;2022-09-03T00:25:18;17.10;72.70
61841;DHT22;47773;53.174;6.614;2022-09-03T00:27:46;17.10;73.50
61841;DHT22;47773;53.174;6.614;2022-09-03T00:30:16;17.00;73.50
61841;DHT22;47773;53.174;6.614;2022-09-03T00:33:03;17.00;72.80
61841;DHT22;47773;53.174;6.614;2022-09-03T00:35:40;17.00;73.50
61841;DHT22;47773;53.174;6.614;2022-09-03T00:38:08;17.00;73.40
61841;DHT22;47773;53.174;6.614;2022-09-03T00:44:07;16.90;75.10
61841;DHT22;47773;53.174;6.614;2022-09-03T00:46:44;16.90;74.50
61841;DHT22;47773;53.174;6.614;2022-09-03T00:49:36;16.90;74.70
61841;DHT22;47773;53.174;6.614;2022-09-03T00:52:25;16.80;75.60
61841;DHT22;47773;53.174;6.614;2022-09-03T00:55:08;16.80;75.30
61841;DHT22;47773;53.174;6.614;2022-09-03T01:00:21;16.70;75.90
61841;DHT22;47773;53.174;6.614;2022-09-03T01:03:22;16.70;75.60
61841;DHT22;47773;53.174;6.614;2022-09-03T01:06:17;16.70;76.50
61841;DHT22;47773;53.174;6.614;2022-09-03T01:11:35;16.70;76.70
61841;DHT22;47773;53.174;6.614;2022-09-03T01:16:48;16.60;76.80
61841;DHT22;47773;53.174;6.614;2022-09-03T01:28:25;16.50;78.70
61841;DHT22;47773;53.174;6.614;2022-09-03T01:31:27;16.40;78.90
61841;DHT22;47773;53.174;6.614;2022-09-03T01:34:12;16.40;80.30
61841;DHT22;47773;53.174;6.614;2022-09-03T01:37:04;16.30;80.40
61841;DHT22;47773;53.174;6.614;2022-09-03T01:47:55;16.20;84.20
61841;DHT22;47773;53.174;6.614;2022-09-03T01:55:42;16.10;85.80
61841;DHT22;47773;53.174;6.614;2022-09-03T02:00:40;16.00;87.10
61841;DHT22;47773;53.174;6.614;2022-09-03T02:03:09;16.00;87.60
61841;DHT22;47773;53.174;6.614;2022-09-03T02:05:35;16.00;88.70
61841;DHT22;47773;53.174;6.614;2022-09-03T02:08:06;15.90;89.20
61841;DHT22;47773;53.174;6.614;2022-09-03T02:15:44;15.90;89.70
61841;DHT22;47773;53.174;6.614;2022-09-03T02:18:15;15.90;89.70
61841;DHT22;47773;53.174;6.614;2022-09-03T02:20:42;15.90;90.20
61841;DHT22;47773;53.174;6.614;2022-09-03T02:23:08;15.90;90.10
61841;DHT22;47773;53.174;6.614;2022-09-03T02:25:41;15.90;90.30
61841;DHT22;47773;53.174;6.614;2022-09-03T02:28:09;15.80;90.90
61841;DHT22;47773;53.174;6.614;2022-09-03T02:30:35;15.80;90.90
61841;DHT22;47773;53.174;6.614;2022-09-03T02:33:01;15.70;91.10
61841;DHT22;47773;53.174;6.614;2022-09-03T02:35:27;15.80;91.30
61841;DHT22;47773;53.174;6.614;2022-09-03T02:37:53;15.70;91.60
61841;DHT22;47773;53.174;6.614;2022-09-03T02:40:19;15.70;92.00
61841;DHT22;47773;53.174;6.614;2022-09-03T02:42:45;15.60;92.30
61841;DHT22;47773;53.174;6.614;2022-09-03T02:45:28;15.70;92.80
61841;DHT22;47773;53.174;6.614;2022-09-03T02:47:58;15.60;93.90
61841;DHT22;47773;53.174;6.614;2022-09-03T02:50:25;15.60;93.80
61841;DHT22;47773;53.174;6.614;2022-09-03T02:52:51;15.60;93.80
61841;DHT22;47773;53.174;6.614;2022-09-03T02:55:17;15.60;94.20
61841;DHT22;47773;53.174;6.614;2022-09-03T02:57:44;15.60;94.70
61841;DHT22;47773;53.174;6.614;2022-09-03T03:00:11;15.60;95.00
61841;DHT22;47773;53.174;6.614;2022-09-03T03:02:37;15.50;95.30
61841;DHT22;47773;53.174;6.614;2022-09-03T03:05:03;15.50;95.60
61841;DHT22;47773;53.174;6.614;2022-09-03T03:07:36;15.50;95.90
61841;DHT22;47773;53.174;6.614;2022-09-03T03:10:02;15.40;96.60
61841;DHT22;47773;53.174;6.614;2022-09-03T03:12:28;15.40;96.20
61841;DHT22;47773;53.174;6.614;2022-09-03T03:14:55;15.50;96.50
61841;DHT22;47773;53.174;6.614;2022-09-03T03:17:21;15.40;96.60
61841;DHT22;47773;53.174;6.614;2022-09-03T03:19:47;15.40;96.70
61841;DHT22;47773;53.174;6.614;2022-09-03T03:22:13;15.40;96.80
61841;DHT22;47773;53.174;6.614;2022-09-03T03:24:39;15.40;97.00
61841;DHT22;47773;53.174;6.614;2022-09-03T03:27:05;15.40;97.10
61841;DHT22;47773;53.174;6.614;2022-09-03T03:29:32;15.40;97.20
61841;DHT22;47773;53.174;6.614;2022-09-03T03:31:58;15.40;97.30
61841;DHT22;47773;53.174;6.614;2022-09-03T03:34:24;15.40;97.20
61841;DHT22;47773;53.174;6.614;2022-09-03T03:36:49;15.40;97.40
61841;DHT22;47773;53.174;6.614;2022-09-03T03:39:15;15.40;97.40
61841;DHT22;47773;53.174;6.614;2022-09-03T03:41:40;15.40;97.50
61841;DHT22;47773;53.174;6.614;2022-09-03T03:44:07;15.40;97.50
61841;DHT22;47773;53.174;6.614;2022-09-03T03:46:40;15.40;97.60
61841;DHT22;47773;53.174;6.614;2022-09-03T03:49:07;15.50;98.40
61841;DHT22;47773;53.174;6.614;2022-09-03T03:51:33;15.50;97.80
61841;DHT22;47773;53.174;6.614;2022-09-03T03:53:59;15.50;97.90
61841;DHT22;47773;53.174;6.614;2022-09-03T03:56:26;15.50;98.00
61841;DHT22;47773;53.174;6.614;2022-09-03T03:58:52;15.50;98.10
61841;DHT22;47773;53.174;6.614;2022-09-03T04:01:20;15.50;98.10
61841;DHT22;47773;53.174;6.614;2022-09-03T04:03:46;15.40;98.20
61841;DHT22;47773;53.174;6.614;2022-09-03T04:06:14;15.40;98.30
61841;DHT22;47773;53.174;6.614;2022-09-03T04:08:41;15.40;98.50
61841;DHT22;47773;53.174;6.614;2022-09-03T04:11:09;15.40;98.70
61841;DHT22;47773;53.174;6.614;2022-09-03T04:13:37;15.40;98.90
61841;DHT22;47773;53.174;6.614;2022-09-03T04:16:08;15.40;99.10
61841;DHT22;47773;53.174;6.614;2022-09-03T04:18:35;15.30;99.60
61841;DHT22;47773;53.174;6.614;2022-09-03T04:21:03;15.30;99.20
61841;DHT22;47773;53.174;6.614;2022-09-03T04:23:30;15.30;99.30
61841;DHT22;47773;53.174;6.614;2022-09-03T04:25:56;15.30;99.50
61841;DHT22;47773;53.174;6.614;2022-09-03T04:28:22;15.30;99.50
61841;DHT22;47773;53.174;6.614;2022-09-03T04:30:47;15.30;99.50
61841;DHT22;47773;53.174;6.614;2022-09-03T04:33:13;15.30;99.60
61841;DHT22;47773;53.174;6.614;2022-09-03T04:35:39;15.30;99.50
61841;DHT22;47773;53.174;6.614;2022-09-03T04:38:05;15.30;99.60
61841;DHT22;47773;53.174;6.614;2022-09-03T04:40:31;15.30;99.70
61841;DHT22;47773;53.174;6.614;2022-09-03T04:42:57;15.20;99.90
61841;DHT22;47773;53.174;6.614;2022-09-03T04:45:26;15.30;99.90
61841;DHT22;47773;53.174;6.614;2022-09-03T04:48:02;15.20;99.90
61841;DHT22;47773;53.174;6.614;2022-09-03T04:50:30;15.20;99.90
61841;DHT22;47773;53.174;6.614;2022-09-03T04:53:01;15.20;99.90
61841;DHT22;47773;53.174;6.614;2022-09-03T04:55:27;15.20;99.90
61841;DHT22;47773;53.174;6.614;2022-09-03T04:57:53;15.20;99.90
61841;DHT22;47773;53.174;6.614;2022-09-03T05:00:19;15.20;99.90
61841;DHT22;47773;53.174;6.614;2022-09-03T05:02:45;15.10;99.90
61841;DHT22;47773;53.174;6.614;2022-09-03T05:05:16;15.10;99.90
61841;DHT22;47773;53.174;6.614;2022-09-03T05:07:42;15.20;99.90
61841;DHT22;47773;53.174;6.614;2022-09-03T05:10:10;15.10;99.90
61841;DHT22;47773;53.174;6.614;2022-09-03T05:12:37;15.10;99.90
61841;DHT22;47773;53.174;6.614;2022-09-03T05:15:04;15.10;99.90
61841;DHT22;47773;53.174;6.614;2022-09-03T05:17:30;15.10;99.90
61841;DHT22;47773;53.174;6.614;2022-09-03T05:19:56;15.10;99.90
61841;DHT22;47773;53.174;6.614;2022-09-03T05:22:22;15.10;99.90
61841;DHT22;47773;53.174;6.614;2022-09-03T05:24:48;15.00;99.90
61841;DHT22;47773;53.174;6.614;2022-09-03T05:27:15;15.00;99.90
61841;DHT22;47773;53.174;6.614;2022-09-03T05:29:44;15.00;99.90
61841;DHT22;47773;53.174;6.614;2022-09-03T05:32:11;15.00;99.90
61841;DHT22;47773;53.174;6.614;2022-09-03T05:34:42;15.00;99.90
61841;DHT22;47773;53.174;6.614;2022-09-03T05:37:08;15.00;99.90
61841;DHT22;47773;53.174;6.614;2022-09-03T05:39:34;15.00;99.90
61841;DHT22;47773;53.174;6.614;2022-09-03T05:41:59;15.10;99.90
61841;DHT22;47773;53.174;6.614;2022-09-03T05:44:25;15.10;99.90
61841;DHT22;47773;53.174;6.614;2022-09-03T05:46:50;15.10;99.90
61841;DHT22;47773;53.174;6.614;2022-09-03T05:49:16;15.10;99.90
61841;DHT22;47773;53.174;6.614;2022-09-03T05:51:42;15.10;99.90
61841;DHT22;47773;53.174;6.614;2022-09-03T05:54:09;15.10;99.90
61841;DHT22;47773;53.174;6.614;2022-09-03T05:56:36;15.20;99.90
61841;DHT22;47773;53.174;6.614;2022-09-03T05:59:05;15.20;99.90
61841;DHT22;47773;53.174;6.614;2022-09-03T06:01:33;15.30;99.90
61841;DHT22;47773;53.174;6.614;2022-09-03T06:04:04;15.40;99.90
61841;DHT22;47773;53.174;6.614;2022-09-03T06:06:31;15.50;99.90
61841;DHT22;47773;53.174;6.614;2022-09-03T06:09:05;15.60;99.90
61841;DHT22;47773;53.174;6.614;2022-09-03T06:11:34;15.80;99.90
61841;DHT22;47773;53.174;6.614;2022-09-03T06:14:03;15.90;99.90
61841;DHT22;47773;53.174;6.614;2022-09-03T06:16:30;16.20;99.40
61841;DHT22;47773;53.174;6.614;2022-09-03T06:18:57;16.30;98.40
61841;DHT22;47773;53.174;6.614;2022-09-03T06:21:23;16.50;97.40
61841;DHT22;47773;53.174;6.614;2022-09-03T06:23:53;16.60;96.80
61841;DHT22;47773;53.174;6.614;2022-09-03T06:26:22;16.70;96.10
61841;DHT22;47773;53.174;6.614;2022-09-03T06:28:49;17.00;95.10
61841;DHT22;47773;53.174;6.614;2022-09-03T06:31:17;17.20;93.60
61841;DHT22;47773;53.174;6.614;2022-09-03T06:33:44;17.50;92.20
61841;DHT22;47773;53.174;6.614;2022-09-03T06:36:12;17.70;91.30
61841;DHT22;47773;53.174;6.614;2022-09-03T06:38:38;17.90;90.30
61841;DHT22;47773;53.174;6.614;2022-09-03T06:41:08;18.10;88.60
61841;DHT22;47773;53.174;6.614;2022-09-03T06:43:37;18.20;86.10
61841;DHT22;47773;53.174;6.614;2022-09-03T06:46:05;18.40;84.30
61841;DHT22;47773;53.174;6.614;2022-09-03T06:48:33;18.40;83.50
61841;DHT22;47773;53.174;6.614;2022-09-03T06:51:01;18.50;83.20
61841;DHT22;47773;53.174;6.614;2022-09-03T06:53:29;18.60;82.10
61841;DHT22;47773;53.174;6.614;2022-09-03T06:56:00;18.70;80.80
61841;DHT22;47773;53.174;6.614;2022-09-03T06:58:34;18.80;79.80
61841;DHT22;47773;53.174;6.614;2022-09-03T07:01:06;19.00;78.00
61841;DHT22;47773;53.174;6.614;2022-09-03T07:03:36;19.00;78.50
61841;DHT22;47773;53.174;6.614;2022-09-03T07:06:04;19.00;77.70
61841;DHT22;47773;53.174;6.614;2022-09-03T07:08:31;19.10;77.00
61841;DHT22;47773;53.174;6.614;2022-09-03T07:11:05;19.10;76.80
61841;DHT22;47773;53.174;6.614;2022-09-03T07:13:41;19.00;76.80
61841;DHT22;47773;53.174;6.614;2022-09-03T07:16:11;19.00;76.30
61841;DHT22;47773;53.174;6.614;2022-09-03T07:18:37;18.70;78.00
61841;DHT22;47773;53.174;6.614;2022-09-03T07:21:08;18.60;78.80
61841;DHT22;47773;53.174;6.614;2022-09-03T07:23:36;18.40;79.60
61841;DHT22;47773;53.174;6.614;2022-09-03T07:26:04;18.20;80.70
61841;DHT22;47773;53.174;6.614;2022-09-03T07:28:30;18.10;81.80
61841;DHT22;47773;53.174;6.614;2022-09-03T07:31:11;18.10;82.40
61841;DHT22;47773;53.174;6.614;2022-09-03T07:33:38;18.00;83.80
61841;DHT22;47773;53.174;6.614;2022-09-03T07:36:15;18.10;84.90
61841;DHT22;47773;53.174;6.614;2022-09-03T07:38:42;18.10;85.30
61841;DHT22;47773;53.174;6.614;2022-09-03T07:41:10;18.00;85.50
61841;DHT22;47773;53.174;6.614;2022-09-03T07:43:41;17.90;85.70
61841;DHT22;47773;53.174;6.614;2022-09-03T07:46:21;17.90;86.50
61841;DHT22;47773;53.174;6.614;2022-09-03T07:48:50;17.90;87.80
61841;DHT22;47773;53.174;6.614;2022-09-03T07:51:18;18.00;87.10
61841;DHT22;47773;53.174;6.614;2022-09-03T07:53:45;18.00;87.10
61841;DHT22;47773;53.174;6.614;2022-09-03T07:56:11;18.00;87.70
61841;DHT22;47773;53.174;6.614;2022-09-03T07:58:38;18.00;87.40
61841;DHT22;47773;53.174;6.614;2022-09-03T08:01:06;18.10;87.90
61841;DHT22;47773;53.174;6.614;2022-09-03T08:03:33;18.10;87.40
61841;DHT22;47773;53.174;6.614;2022-09-03T08:06:03;18.20;87.10
61841;DHT22;47773;53.174;6.614;2022-09-03T08:08:29;18.30;86.90
61841;DHT22;47773;53.174;6.614;2022-09-03T08:11:05;18.30;86.30
61841;DHT22;47773;53.174;6.614;2022-09-03T08:13:34;18.40;86.20
61841;DHT22;47773;53.174;6.614;2022-09-03T08:16:00;18.50;85.10
61841;DHT22;47773;53.174;6.614;2022-09-03T08:18:26;18.60;84.40
61841;DHT22;47773;53.174;6.614;2022-09-03T08:20:59;18.60;82.90
61841;DHT22;47773;53.174;6.614;2022-09-03T08:23:24;18.70;82.80
61841;DHT22;47773;53.174;6.614;2022-09-03T08:26:00;18.70;81.80
61841;DHT22;47773;53.174;6.614;2022-09-03T08:28:26;18.80;81.30
61841;DHT22;47773;53.174;6.614;2022-09-03T08:30:52;18.90;80.80
61841;DHT22;47773;53.174;6.614;2022-09-03T08:33:18;19.00;80.30
61841;DHT22;47773;53.174;6.614;2022-09-03T08:38:48;19.20;77.60
61841;DHT22;47773;53.174;6.614;2022-09-03T08:41:18;19.20;77.20
61841;DHT22;47773;53.174;6.614;2022-09-03T08:46:15;19.50;76.10
61841;DHT22;47773;53.174;6.614;2022-09-03T08:48:41;19.60;74.40
61841;DHT22;47773;53.174;6.614;2022-09-03T08:51:08;19.70;73.70
61841;DHT22;47773;53.174;6.614;2022-09-03T08:53:43;20.00;73.10
61841;DHT22;47773;53.174;6.614;2022-09-03T08:56:12;20.20;72.10
61841;DHT22;47773;53.174;6.614;2022-09-03T08:58:40;20.40;71.30
61841;DHT22;47773;53.174;6.614;2022-09-03T09:01:11;20.60;70.40
61841;DHT22;47773;53.174;6.614;2022-09-03T09:20:48;22.00;64.50
61841;DHT22;47773;53.174;6.614;2022-09-03T09:23:39;22.20;63.50
61841;DHT22;47773;53.174;6.614;2022-09-03T09:26:10;22.30;63.30
61841;DHT22;47773;53.174;6.614;2022-09-03T09:28:38;22.50;62.00
61841;DHT22;47773;53.174;6.614;2022-09-03T09:31:06;22.80;62.60
61841;DHT22;47773;53.174;6.614;2022-09-03T09:33:34;23.10;62.10
61841;DHT22;47773;53.174;6.614;2022-09-03T09:36:09;23.30;61.30
61841;DHT22;47773;53.174;6.614;2022-09-03T09:38:37;23.40;59.60
61841;DHT22;47773;53.174;6.614;2022-09-03T09:43:36;23.50;59.90
61841;DHT22;47773;53.174;6.614;2022-09-03T09:46:24;23.60;59.30
61841;DHT22;47773;53.174;6.614;2022-09-03T09:48:53;23.80;57.60
61841;DHT22;47773;53.174;6.614;2022-09-03T09:51:30;24.10;58.20
61841;DHT22;47773;53.174;6.614;2022-09-03T09:54:24;24.10;56.90
61841;DHT22;47773;53.174;6.614;2022-09-03T09:57:14;24.30;57.30
61841;DHT22;47773;53.174;6.614;2022-09-03T09:59:42;24.40;56.10
61841;DHT22;47773;53.174;6.614;2022-09-03T10:02:22;24.50;56.70
61841;DHT22;47773;53.174;6.614;2022-09-03T10:04:50;24.50;56.20
61841;DHT22;47773;53.174;6.614;2022-09-03T10:07:31;24.70;56.40
61841;DHT22;47773;53.174;6.614;2022-09-03T10:10:17;24.80;55.50
61841;DHT22;47773;53.174;6.614;2022-09-03T10:13:07;24.80;53.80
61841;DHT22;47773;53.174;6.614;2022-09-03T10:16:01;24.70;53.20
61841;DHT22;47773;53.174;6.614;2022-09-03T10:18:42;24.70;53.90
61841;DHT22;47773;53.174;6.614;2022-09-03T10:21:17;24.80;54.40
61841;DHT22;47773;53.174;6.614;2022-09-03T10:24:14;24.90;54.20
61841;DHT22;47773;53.174;6.614;2022-09-03T10:26:43;25.10;53.80
61841;DHT22;47773;53.174;6.614;2022-09-03T10:29:21;25.10;53.60
61841;DHT22;47773;53.174;6.614;2022-09-03T10:31:55;25.30;53.70
61841;DHT22;47773;53.174;6.614;2022-09-03T10:46:09;25.90;50.60
61841;DHT22;47773;53.174;6.614;2022-09-03T10:51:30;26.00;49.90
61841;DHT22;47773;53.174;6.614;2022-09-03T10:54:25;26.00;49.90
61841;DHT22;47773;53.174;6.614;2022-09-03T11:05:05;26.60;48.50
61841;DHT22;47773;53.174;6.614;2022-09-03T11:07:48;26.60;48.80
61841;DHT22;47773;53.174;6.614;2022-09-03T11:10:25;26.70;47.60
61841;DHT22;47773;53.174;6.614;2022-09-03T11:13:15;26.60;47.30
61841;DHT22;47773;53.174;6.614;2022-09-03T11:20:46;26.50;47.10
61841;DHT22;47773;53.174;6.614;2022-09-03T11:23:15;26.50;47.50
61841;DHT22;47773;53.174;6.614;2022-09-03T11:25:50;26.60;47.40
61841;DHT22;47773;53.174;6.614;2022-09-03T11:28:40;26.60;46.40
61841;DHT22;47773;53.174;6.614;2022-09-03T11:31:45;26.50;45.40
61841;DHT22;47773;53.174;6.614;2022-09-03T11:37:04;26.50;46.00
61841;DHT22;47773;53.174;6.614;2022-09-03T11:42:02;26.60;46.70
61841;DHT22;47773;53.174;6.614;2022-09-03T11:44:39;26.60;45.70
61841;DHT22;47773;53.174;6.614;2022-09-03T11:49:46;26.60;46.20
61841;DHT22;47773;53.174;6.614;2022-09-03T11:52:30;26.60;46.40
61841;DHT22;47773;53.174;6.614;2022-09-03T11:54:57;26.70;45.70
61841;DHT22;47773;53.174;6.614;2022-09-03T11:59:52;26.80;45.40
61841;DHT22;47773;53.174;6.614;2022-09-03T12:02:33;26.60;45.90
61841;DHT22;47773;53.174;6.614;2022-09-03T12:05:13;26.60;45.50
61841;DHT22;47773;53.174;6.614;2022-09-03T12:08:09;26.50;45.10
61841;DHT22;47773;53.174;6.614;2022-09-03T12:14:36;26.30;44.50
61841;DHT22;47773;53.174;6.614;2022-09-03T12:22:14;26.20;43.50
61841;DHT22;47773;53.174;6.614;2022-09-03T12:24:40;26.10;45.00
61841;DHT22;47773;53.174;6.614;2022-09-03T12:27:19;26.00;45.20
61841;DHT22;47773;53.174;6.614;2022-09-03T12:29:56;25.90;45.00
61841;DHT22;47773;53.174;6.614;2022-09-03T12:32:29;25.80;45.30
61841;DHT22;47773;53.174;6.614;2022-09-03T12:34:56;25.70;45.40
61841;DHT22;47773;53.174;6.614;2022-09-03T12:37:25;25.80;44.80
61841;DHT22;47773;53.174;6.614;2022-09-03T12:39:52;25.90;45.50
61841;DHT22;47773;53.174;6.614;2022-09-03T12:42:27;26.10;45.20
61841;DHT22;47773;53.174;6.614;2022-09-03T12:44:53;26.20;44.50
61841;DHT22;47773;53.174;6.614;2022-09-03T12:47:23;26.30;44.80
61841;DHT22;47773;53.174;6.614;2022-09-03T12:49:56;26.40;44.90
61841;DHT22;47773;53.174;6.614;2022-09-03T12:52:35;26.20;44.20
61841;DHT22;47773;53.174;6.614;2022-09-03T13:00:21;26.10;44.90
61841;DHT22;47773;53.174;6.614;2022-09-03T13:02:55;25.90;44.90
61841;DHT22;47773;53.174;6.614;2022-09-03T13:05:50;26.00;45.00
61841;DHT22;47773;53.174;6.614;2022-09-03T13:08:19;25.90;44.60
61841;DHT22;47773;53.174;6.614;2022-09-03T13:10:51;25.80;45.10
61841;DHT22;47773;53.174;6.614;2022-09-03T13:19:14;25.90;44.60
61841;DHT22;47773;53.174;6.614;2022-09-03T13:24:39;25.90;45.00
61841;DHT22;47773;53.174;6.614;2022-09-03T13:30:14;25.60;44.10
61841;DHT22;47773;53.174;6.614;2022-09-03T13:36:01;25.50;44.30
61841;DHT22;47773;53.174;6.614;2022-09-03T13:39:02;25.50;45.20
61841;DHT22;47773;53.174;6.614;2022-09-03T13:42:05;25.50;44.20
61841;DHT22;47773;53.174;6.614;2022-09-03T13:47:46;25.50;45.20
61841;DHT22;47773;53.174;6.614;2022-09-03T13:50:44;25.40;45.20
61841;DHT22;47773;53.174;6.614;2022-09-03T13:53:31;25.40;44.70
61841;DHT22;47773;53.174;6.614;2022-09-03T13:56:14;25.40;44.70
61841;DHT22;47773;53.174;6.614;2022-09-03T13:58:52;25.30;44.80
61841;DHT22;47773;53.174;6.614;2022-09-03T14:03:54;25.40;45.40
61841;DHT22;47773;53.174;6.614;2022-09-03T14:12:08;25.30;44.80
61841;DHT22;47773;53.174;6.614;2022-09-03T14:14:43;25.30;44.60
61841;DHT22;47773;53.174;6.614;2022-09-03T14:17:18;25.30;45.30
61841;DHT22;47773;53.174;6.614;2022-09-03T14:20:03;25.30;45.20
61841;DHT22;47773;53.174;6.614;2022-09-03T14:25:25;25.20;44.60
61841;DHT22;47773;53.174;6.614;2022-09-03T14:27:52;25.20;45.30
61841;DHT22;47773;53.174;6.614;2022-09-03T14:36:51;25.10;45.20
61841;DHT22;47773;53.174;6.614;2022-09-03T14:39:46;25.10;44.50
61841;DHT22;47773;53.174;6.614;2022-09-03T14:45:26;25.00;45.50
61841;DHT22;47773;53.174;6.614;2022-09-03T14:59:36;25.00;46.30
61841;DHT22;47773;53.174;6.614;2022-09-03T15:10:11;24.80;46.30
61841;DHT22;47773;53.174;6.614;2022-09-03T15:12:44;24.80;46.20
61841;DHT22;47773;53.174;6.614;2022-09-03T15:15:23;24.80;46.20
61841;DHT22;47773;53.174;6.614;2022-09-03T15:18:01;24.80;46.50
61841;DHT22;47773;53.174;6.614;2022-09-03T15:20:51;24.80;46.40
61841;DHT22;47773;53.174;6.614;2022-09-03T15:32:05;24.80;47.00
61841;DHT22;47773;53.174;6.614;2022-09-03T15:37:51;24.80;47.30
61841;DHT22;47773;53.174;6.614;2022-09-03T15:40:39;24.80;47.30
61841;DHT22;47773;53.174;6.614;2022-09-03T15:43:16;24.80;47.60
61841;DHT22;47773;53.174;6.614;2022-09-03T15:48:51;24.80;47.70
61841;DHT22;47773;53.174;6.614;2022-09-03T15:51:35;24.80;47.70
61841;DHT22;47773;53.174;6.614;2022-09-03T15:54:34;24.80;47.70
61841;DHT22;47773;53.174;6.614;2022-09-03T15:57:08;24.70;47.30
61841;DHT22;47773;53.174;6.614;2022-09-03T15:59:53;24.70;47.80
61841;DHT22;47773;53.174;6.614;2022-09-03T16:02:30;24.70;48.00
61841;DHT22;47773;53.174;6.614;2022-09-03T16:15:23;24.50;48.60
61841;DHT22;47773;53.174;6.614;2022-09-03T16:18:20;24.50;48.90
61841;DHT22;47773;53.174;6.614;2022-09-03T16:20:57;24.50;49.10
61841;DHT22;47773;53.174;6.614;2022-09-03T16:26:29;24.50;48.90
61841;DHT22;47773;53.174;6.614;2022-09-03T16:29:13;24.50;49.30
61841;DHT22;47773;53.174;6.614;2022-09-03T16:34:49;24.50;49.90
61841;DHT22;47773;53.174;6.614;2022-09-03T16:56:43;24.10;51.00
61841;DHT22;47773;53.174;6.614;2022-09-03T17:06:04;24.00;51.70
61841;DHT22;47773;53.174;6.614;2022-09-03T17:08:32;24.00;52.40
61841;DHT22;47773;53.174;6.614;2022-09-03T17:17:08;23.80;52.90
61841;DHT22;47773;53.174;6.614;2022-09-03T17:19:50;23.80;53.10
61841;DHT22;47773;53.174;6.614;2022-09-03T17:22:51;23.70;53.10
61841;DHT22;47773;53.174;6.614;2022-09-03T17:28:38;23.70;53.70
61841;DHT22;47773;53.174;6.614;2022-09-03T17:36:25;23.60;53.70
61841;DHT22;47773;53.174;6.614;2022-09-03T17:41:49;23.50;54.20
61841;DHT22;47773;53.174;6.614;2022-09-03T17:50:23;23.30;55.10
61841;DHT22;47773;53.174;6.614;2022-09-03T17:55:55;23.10;55.00
61841;DHT22;47773;53.174;6.614;2022-09-03T17:58:33;23.00;54.90
61841;DHT22;47773;53.174;6.614;2022-09-03T18:06:19;22.70;55.30
61841;DHT22;47773;53.174;6.614;2022-09-03T18:14:09;22.50;55.30
61841;DHT22;47773;53.174;6.614;2022-09-03T18:19:47;22.30;55.40
61841;DHT22;47773;53.174;6.614;2022-09-03T18:22:46;22.20;55.70
61841;DHT22;47773;53.174;6.614;2022-09-03T18:25:34;22.10;55.90
61841;DHT22;47773;53.174;6.614;2022-09-03T18:28:26;22.00;56.10
61841;DHT22;47773;53.174;6.614;2022-09-03T18:31:15;22.00;56.40
61841;DHT22;47773;53.174;6.614;2022-09-03T18:34:02;21.90;56.50
61841;DHT22;47773;53.174;6.614;2022-09-03T18:36:46;21.80;56.60
61841;DHT22;47773;53.174;6.614;2022-09-03T18:39:30;21.70;56.90
61841;DHT22;47773;53.174;6.614;2022-09-03T18:54:17;21.40;58.80
61841;DHT22;47773;53.174;6.614;2022-09-03T18:57:19;21.30;58.90
61841;DHT22;47773;53.174;6.614;2022-09-03T19:00:10;21.20;59.20
61841;DHT22;47773;53.174;6.614;2022-09-03T19:03:03;21.20;59.50
61841;DHT22;47773;53.174;6.614;2022-09-03T19:09:36;21.00;60.20
61841;DHT22;47773;53.174;6.614;2022-09-03T19:15:26;20.90;60.70
61841;DHT22;47773;53.174;6.614;2022-09-03T19:21:55;20.70;61.70
61841;DHT22;47773;53.174;6.614;2022-09-03T19:24:40;20.70;61.90
61841;DHT22;47773;53.174;6.614;2022-09-03T19:27:44;20.70;61.70
61841;DHT22;47773;53.174;6.614;2022-09-03T19:30:45;20.60;62.00
61841;DHT22;47773;53.174;6.614;2022-09-03T19:36:35;20.50;62.20
61841;DHT22;47773;53.174;6.614;2022-09-03T19:49:31;20.40;62.10
61841;DHT22;47773;53.174;6.614;2022-09-03T19:52:43;20.40;62.20
61841;DHT22;47773;53.174;6.614;2022-09-03T19:55:34;20.30;62.30
61841;DHT22;47773;53.174;6.614;2022-09-03T19:58:22;20.30;62.30
61841;DHT22;47773;53.174;6.614;2022-09-03T20:01:11;20.30;62.30
61841;DHT22;47773;53.174;6.614;2022-09-03T20:03:58;20.20;62.30
61841;DHT22;47773;53.174;6.614;2022-09-03T20:06:44;20.20;62.40
61841;DHT22;47773;53.174;6.614;2022-09-03T20:09:33;20.10;62.40
61841;DHT22;47773;53.174;6.614;2022-09-03T20:12:20;20.10;62.40
61841;DHT22;47773;53.174;6.614;2022-09-03T20:14:46;20.10;62.50
61841;DHT22;47773;53.174;6.614;2022-09-03T20:20:06;20.00;62.60
61841;DHT22;47773;53.174;6.614;2022-09-03T20:22:57;20.00;62.70
61841;DHT22;47773;53.174;6.614;2022-09-03T20:31:09;19.80;62.80
61841;DHT22;47773;53.174;6.614;2022-09-03T20:33:44;19.80;63.10
61841;DHT22;47773;53.174;6.614;2022-09-03T20:36:43;19.80;62.90
61841;DHT22;47773;53.174;6.614;2022-09-03T20:44:46;19.70;63.10
61841;DHT22;47773;53.174;6.614;2022-09-03T20:53:25;19.50;63.20
61841;DHT22;47773;53.174;6.614;2022-09-03T20:56:02;19.50;63.00
61841;DHT22;47773;53.174;6.614;2022-09-03T20:58:47;19.50;62.90
61841;DHT22;47773;53.174;6.614;2022-09-03T21:01:25;19.50;62.90
61841;DHT22;47773;53.174;6.614;2022-09-03T21:04:20;19.60;63.00
61841;DHT22;47773;53.174;6.614;2022-09-03T21:07:00;19.50;63.10
61841;DHT22;47773;53.174;6.614;2022-09-03T21:17:58;19.50;63.40
61841;DHT22;47773;53.174;6.614;2022-09-03T21:20:36;19.50;62.60
61841;DHT22;47773;53.174;6.614;2022-09-03T21:25:41;19.50;62.50
61841;DHT22;47773;53.174;6.614;2022-09-03T21:30:57;19.40;62.40
61841;DHT22;47773;53.174;6.614;2022-09-03T21:33:37;19.40;62.50
61841;DHT22;47773;53.174;6.614;2022-09-03T21:36:11;19.40;62.40
61841;DHT22;47773;53.174;6.614;2022-09-03T21:38:38;19.30;62.50
61841;DHT22;47773;53.174;6.614;2022-09-03T21:41:16;19.30;62.60
61841;DHT22;47773;53.174;6.614;2022-09-03T21:49:50;19.20;62.80
61841;DHT22;47773;53.174;6.614;2022-09-03T21:52:15;19.20;62.90
61841;DHT22;47773;53.174;6.614;2022-09-03T21:54:41;19.10;62.90
61841;DHT22;47773;53.174;6.614;2022-09-03T21:57:21;19.10;63.00
61841;DHT22;47773;53.174;6.614;2022-09-03T22:02:30;19.00;63.50
61841;DHT22;47773;53.174;6.614;2022-09-03T22:04:57;19.00;63.50
61841;DHT22;47773;53.174;6.614;2022-09-03T22:07:44;18.90;63.60